createdAt,value
2022-08-19T00:29:11.886Z,16.07
2022-08-19T00:34:25.176Z,16.07
2022-08-19T00:37:02.525Z,15.94
2022-08-19T01:01:15.742Z,15.60
2022-08-19T01:10:41.530Z,15.46
2022-08-19T01:13:24.012Z,15.43
2022-08-19T01:16:02.437Z,15.37
2022-08-19T01:24:24.679Z,15.27
2022-08-19T01:26:55.405Z,15.34
2022-08-19T01:31:57.612Z,15.40
2022-08-19T01:34:28.369Z,15.45
2022-08-19T01:43:16.516Z,15.44
2022-08-19T01:46:05.723Z,15.37
2022-08-19T01:48:40.452Z,15.36
2022-08-19T01:54:26.993Z,15.19
2022-08-19T01:57:03.092Z,15.17
2022-08-19T02:05:37.452Z,15.18
2022-08-19T02:08:09.512Z,15.22
2022-08-19T02:13:28.312Z,15.20
2022-08-19T02:15:56.727Z,15.15
2022-08-19T02:21:14.914Z,15.20
2022-08-19T02:26:22.818Z,15.27
2022-08-19T02:29:00.185Z,15.26
2022-08-19T02:36:45.892Z,15.29
2022-08-19T02:55:49.316Z,15.48
2022-08-19T03:03:47.281Z,15.61
2022-08-19T03:12:34.353Z,15.42
2022-08-19T03:17:41.131Z,15.51
2022-08-19T03:20:14.108Z,15.55
2022-08-19T03:22:41.471Z,15.55
2022-08-19T03:25:12.951Z,15.65
2022-08-19T03:33:18.108Z,15.61
2022-08-19T03:36:29.710Z,15.70
2022-08-19T03:39:05.055Z,15.65
2022-08-19T03:48:40.595Z,15.88
2022-08-19T03:51:31.143Z,15.79
2022-08-19T04:02:27.335Z,15.72
2022-08-19T04:08:27.797Z,15.78
2022-08-19T04:10:58.720Z,15.77
2022-08-19T04:13:30.594Z,15.80
2022-08-19T04:16:02.543Z,15.96
2022-08-19T04:31:29.281Z,16.12
2022-08-19T04:34:24.938Z,16.32
2022-08-19T04:40:10.095Z,16.31
2022-08-19T06:48:51.275Z,19.32
2022-08-19T06:51:25.197Z,19.54
2022-08-19T06:53:55.925Z,19.51
2022-08-19T07:07:57.552Z,19.88
2022-08-19T07:10:26.942Z,19.80
2022-08-19T07:12:55.454Z,19.80
2022-08-19T07:15:25.328Z,19.84
2022-08-19T07:20:49.817Z,20.00
2022-08-19T07:26:27.954Z,19.96
2022-08-19T07:28:57.446Z,20.02
2022-08-19T07:31:28.268Z,20.12
2022-08-19T07:34:10.367Z,20.35
2022-08-19T07:36:43.558Z,20.32
2022-08-19T07:39:17.825Z,20.34
2022-08-19T07:41:47.840Z,20.38
2022-08-19T07:44:18.424Z,20.43
2022-08-19T07:46:54.127Z,20.57
2022-08-19T07:49:23.462Z,20.70
2022-08-19T07:52:02.557Z,20.78
2022-08-19T08:03:44.572Z,20.97
2022-08-19T08:06:37.798Z,21.10
2022-08-19T08:09:16.396Z,21.04
2022-08-19T08:14:38.570Z,21.26
2022-08-19T08:17:12.739Z,21.39
2022-08-19T08:22:42.099Z,22.01
2022-08-19T08:25:20.519Z,22.46
2022-08-19T08:27:49.694Z,23.23
2022-08-19T08:30:24.761Z,24.78
2022-08-19T08:32:53.496Z,27.38
2022-08-19T08:35:24.902Z,30.34
2022-08-19T08:37:57.396Z,33.60
2022-08-19T08:40:44.230Z,36.72
2022-08-19T08:49:11.431Z,43.36
2022-08-19T08:52:40.075Z,43.89
2022-08-19T08:55:21.309Z,45.12
2022-08-19T09:00:53.693Z,47.67
2022-08-19T09:03:27.844Z,48.55
2022-08-19T09:08:56.812Z,48.71
2022-08-19T09:12:07.212Z,48.71
2022-08-19T09:14:55.042Z,49.01
2022-08-19T09:17:31.584Z,49.05
2022-08-19T09:20:34.045Z,49.55
2022-08-19T09:25:51.382Z,47.49
2022-08-19T09:28:22.410Z,45.39
2022-08-19T09:30:56.705Z,44.98
2022-08-19T09:33:28.422Z,45.51
2022-08-19T09:36:34.691Z,46.44
2022-08-19T09:39:16.177Z,47.37
2022-08-19T09:41:49.158Z,47.67
2022-08-19T09:44:18.252Z,47.58
2022-08-19T09:46:48.482Z,47.58
2022-08-19T09:49:24.443Z,47.64
2022-08-19T09:51:56.189Z,47.35
2022-08-19T09:54:25.156Z,47.83
2022-08-19T09:56:57.298Z,47.50
2022-08-19T09:59:25.556Z,47.68
2022-08-19T10:01:53.784Z,47.93
2022-08-19T10:04:23.046Z,48.21
2022-08-19T10:06:57.371Z,47.98
2022-08-19T10:09:33.734Z,47.50
2022-08-19T10:12:04.902Z,47.18
2022-08-19T10:14:36.516Z,46.83
2022-08-19T10:17:19.329Z,45.76
2022-08-19T10:22:55.962Z,45.15
2022-08-19T10:35:00.724Z,44.86
2022-08-19T10:37:29.042Z,44.88
2022-08-19T10:40:00.085Z,44.89
2022-08-19T10:42:27.931Z,43.07
2022-08-19T10:47:42.564Z,43.69
2022-08-19T10:50:29.085Z,44.46
2022-08-19T10:53:09.773Z,44.52
2022-08-19T11:03:00.373Z,44.03
2022-08-19T11:05:36.470Z,44.13
2022-08-19T11:08:23.115Z,43.38
2022-08-19T11:11:00.940Z,42.79
2022-08-19T11:13:35.042Z,42.28
2022-08-19T11:16:07.982Z,41.58
2022-08-19T11:18:40.917Z,41.70
2022-08-19T11:21:23.883Z,42.63
2022-08-19T11:23:53.795Z,42.22
2022-08-19T11:26:23.324Z,41.56
2022-08-19T11:29:01.977Z,41.49
2022-08-19T11:31:36.396Z,41.58
2022-08-19T11:34:10.842Z,41.63
2022-08-19T11:36:41.036Z,41.66
2022-08-19T11:39:11.629Z,41.67
2022-08-19T11:41:39.596Z,41.68
2022-08-19T11:44:08.942Z,41.26
2022-08-19T11:46:38.048Z,40.95
2022-08-19T11:49:13.828Z,39.65
2022-08-19T11:52:03.163Z,38.78
2022-08-19T11:54:32.259Z,38.82
2022-08-19T11:57:19.255Z,39.37
2022-08-19T11:59:57.405Z,39.40
2022-08-19T12:05:07.917Z,40.39
2022-08-19T12:07:37.648Z,40.23
2022-08-19T12:10:06.236Z,39.52
2022-08-19T12:12:33.710Z,39.16
2022-08-19T12:15:01.477Z,39.26
2022-08-19T12:20:10.521Z,39.44
2022-08-19T12:22:39.139Z,39.29
2022-08-19T12:25:07.878Z,38.94
2022-08-19T12:27:40.883Z,38.98
2022-08-19T12:31:08.639Z,38.98
2022-08-19T12:33:36.005Z,39.16
2022-08-19T12:36:06.753Z,38.78
2022-08-19T12:38:36.208Z,38.21
2022-08-19T12:41:07.458Z,38.32
2022-08-19T12:46:28.529Z,38.36
2022-08-19T12:48:58.524Z,38.68
2022-08-19T12:51:28.487Z,38.54
2022-08-19T12:53:56.374Z,38.43
2022-08-19T12:56:35.295Z,38.17
2022-08-19T12:59:04.890Z,37.89
2022-08-19T13:01:34.193Z,37.80
2022-08-19T13:04:02.162Z,37.30
2022-08-19T13:07:02.213Z,36.75
2022-08-19T13:14:06.738Z,36.93
2022-08-19T13:16:34.763Z,36.64
2022-08-19T13:19:25.957Z,36.81
2022-08-19T13:24:42.858Z,36.37
2022-08-19T13:30:07.658Z,35.71
2022-08-19T13:33:02.608Z,35.41
2022-08-19T13:35:31.457Z,34.71
2022-08-19T13:37:59.236Z,34.69
2022-08-19T13:43:03.557Z,33.60
2022-08-19T13:45:57.238Z,33.33
2022-08-19T13:48:28.088Z,33.30
2022-08-19T13:50:57.102Z,33.53
2022-08-19T13:53:24.995Z,33.70
2022-08-19T13:55:53.431Z,33.59
2022-08-19T13:58:20.856Z,33.48
2022-08-19T14:01:00.620Z,33.00
2022-08-19T14:03:36.702Z,33.02
2022-08-19T14:06:05.055Z,32.97
2022-08-19T14:08:46.202Z,32.88
2022-08-19T14:11:27.591Z,32.92
2022-08-19T14:13:57.460Z,32.71
2022-08-19T14:16:25.830Z,32.59
2022-08-19T14:18:55.664Z,32.30
2022-08-19T14:21:31.652Z,31.99
2022-08-19T14:24:05.052Z,31.70
2022-08-19T14:32:28.176Z,31.29
2022-08-19T14:34:56.127Z,31.19
2022-08-19T14:37:25.013Z,30.99
2022-08-19T14:39:54.121Z,30.52
2022-08-19T14:42:22.623Z,30.39
2022-08-19T14:44:50.833Z,29.93
2022-08-19T14:47:18.653Z,29.60
2022-08-19T14:54:00.310Z,29.27
2022-08-19T14:56:40.905Z,28.95
2022-08-19T14:59:10.184Z,28.67
2022-08-19T15:01:39.316Z,28.58
2022-08-19T15:04:07.162Z,28.42
2022-08-19T15:06:37.958Z,28.35
2022-08-19T15:09:07.962Z,28.16
2022-08-19T15:11:47.439Z,27.88
2022-08-19T15:42:30.111Z,25.52
2022-08-19T15:45:10.014Z,25.21
2022-08-19T15:54:16.891Z,24.53
2022-08-19T16:51:22.992Z,20.75
2022-08-19T16:54:43.486Z,20.44
2022-08-19T18:02:53.181Z,18.87
2022-08-19T18:05:26.144Z,18.87
2022-08-19T18:07:54.494Z,18.67
2022-08-19T18:10:24.049Z,18.69
2022-08-19T18:13:02.463Z,18.76
2022-08-19T18:15:51.805Z,18.56
2022-08-19T18:18:19.321Z,18.63
2022-08-19T18:20:47.478Z,18.56
2022-08-19T18:25:48.590Z,18.51
2022-08-19T18:28:16.132Z,18.36
2022-08-19T18:30:46.457Z,18.33
2022-08-19T18:33:17.009Z,18.39
2022-08-19T18:35:49.750Z,18.18
2022-08-19T18:38:37.967Z,18.33
2022-08-19T18:41:29.015Z,18.18
2022-08-19T18:44:15.292Z,18.20
2022-08-19T18:47:01.759Z,18.07
2022-08-19T18:49:31.698Z,18.02
2022-08-19T18:52:04.729Z,18.07
2022-08-19T18:54:33.482Z,17.83
2022-08-19T18:57:01.179Z,17.97
2022-08-19T18:59:31.380Z,17.85
2022-08-19T19:02:01.075Z,17.84
2022-08-19T19:04:37.535Z,17.86
2022-08-19T19:07:06.743Z,17.75
2022-08-19T19:09:35.290Z,17.79
2022-08-19T19:12:05.143Z,17.77
2022-08-19T19:17:27.300Z,17.54
2022-08-19T19:19:54.610Z,17.64
2022-08-19T19:22:24.891Z,17.53
2022-08-19T19:27:31.732Z,17.54
2022-08-19T19:33:50.788Z,17.66
2022-08-19T19:39:54.241Z,17.39
2022-08-19T19:42:23.912Z,17.46
2022-08-19T19:45:00.989Z,17.32
2022-08-19T19:50:34.636Z,17.44
2022-08-19T19:53:01.965Z,17.29
2022-08-19T19:55:29.448Z,17.35
2022-08-19T19:57:58.437Z,17.34
2022-08-19T20:00:26.797Z,17.17
2022-08-19T20:02:56.178Z,17.31
2022-08-19T20:05:59.823Z,17.33
2022-08-19T20:09:06.913Z,17.30
2022-08-19T20:11:36.395Z,17.30
2022-08-19T20:14:11.845Z,17.12
2022-08-19T20:16:44.443Z,17.05
2022-08-19T20:19:14.113Z,17.11
2022-08-19T20:21:48.532Z,17.02
2022-08-19T20:24:26.334Z,17.11
2022-08-19T20:26:55.348Z,17.07
2022-08-19T20:29:38.848Z,17.02
2022-08-19T20:32:10.809Z,17.00
2022-08-19T20:34:42.731Z,16.91
2022-08-19T20:37:13.876Z,16.91
2022-08-19T20:39:41.510Z,16.94
2022-08-19T20:42:10.018Z,16.85
2022-08-19T20:44:39.197Z,16.75
2022-08-19T20:47:12.372Z,16.82
2022-08-19T20:49:41.642Z,16.60
2022-08-19T20:52:12.248Z,16.62
2022-08-19T20:57:15.361Z,16.66
2022-08-19T20:59:43.411Z,16.67
2022-08-19T21:02:11.838Z,16.53
2022-08-19T21:04:39.107Z,16.42
2022-08-19T21:07:08.197Z,16.49
2022-08-19T21:09:37.080Z,16.40
2022-08-19T21:12:06.320Z,16.34
2022-08-19T21:14:34.490Z,16.27
2022-08-19T21:17:03.305Z,16.33
2022-08-19T21:19:37.856Z,16.26
2022-08-19T21:22:07.445Z,16.14
2022-08-19T21:24:35.443Z,16.23
2022-08-19T21:27:03.850Z,16.09
2022-08-19T21:29:37.884Z,16.16
2022-08-19T21:32:08.094Z,16.14
2022-08-19T21:40:31.970Z,16.12
2022-08-19T21:42:59.496Z,16.12
2022-08-19T21:45:27.398Z,15.99
2022-08-19T21:47:55.046Z,15.89
2022-08-19T21:50:25.775Z,16.03
2022-08-19T21:52:55.740Z,16.01
2022-08-19T21:58:04.863Z,15.88
2022-08-19T22:00:34.956Z,15.98
2022-08-19T22:03:13.704Z,15.87
2022-08-19T22:05:50.430Z,15.80
2022-08-19T22:08:25.758Z,15.87
2022-08-19T22:13:39.758Z,15.76
2022-08-19T22:16:52.323Z,15.59
2022-08-19T22:19:20.013Z,15.58
2022-08-19T22:21:48.083Z,15.73
2022-08-19T22:24:15.549Z,15.55
2022-08-19T22:26:42.977Z,15.56
2022-08-19T22:29:11.469Z,15.48
2022-08-19T22:31:54.363Z,15.40
2022-08-19T22:34:24.434Z,15.59
2022-08-19T22:36:52.368Z,15.42
2022-08-19T22:39:20.656Z,15.38
2022-08-19T22:41:50.669Z,15.55
2022-08-19T22:44:20.222Z,15.47
2022-08-19T22:46:48.351Z,15.38
2022-08-19T22:49:16.249Z,15.30
2022-08-19T22:52:02.722Z,15.45
2022-08-19T22:54:30.784Z,15.36
2022-08-19T22:56:58.039Z,15.31
2022-08-19T23:00:13.494Z,15.42
2022-08-19T23:02:51.751Z,15.24
2022-08-19T23:05:22.257Z,15.32
2022-08-19T23:07:52.725Z,15.30
2022-08-19T23:10:26.759Z,15.17
2022-08-19T23:12:58.164Z,15.13
2022-08-19T23:15:29.918Z,15.17
2022-08-19T23:18:02.419Z,15.05
2022-08-19T23:20:34.155Z,15.06
2022-08-19T23:23:05.891Z,14.86
2022-08-19T23:25:35.806Z,14.80
2022-08-19T23:28:23.270Z,14.89
2022-08-19T23:30:52.374Z,14.85
2022-08-19T23:34:07.650Z,14.88
2022-08-19T23:40:04.444Z,14.66
2022-08-19T23:59:17.609Z,14.43
